PADL/DLG METAR and TAF weather

Enter ICAO airport designator
Station Type Date Time Source
PADL METAR 2020/05/26 05:56 UTC NOAA

PADL 260556Z AUTO 15006KT 10SM SCT070 BKN090 08/04 A2986 RMK AO2 RAE0457 SLP113 60000 T00780039 10117 20078 53015


Station Type Date Time Source
PADL Decoded METAR 2020/05/26 05:56 UTC NOAA

Dillingham, Dillingham Airport, AK, United States (PADL) 59-03N 158-31W 29M
May 26, 2020 - 01:56 AM EDT / 2020.05.26 0556 UTC
Wind: from the SSE (150 degrees) at 7 MPH (6 KT):0
Visibility: 10 mile(s):0
Sky conditions: mostly cloudy
Temperature: 46.0 F (7.8 C)
Dew Point: 39.0 F (3.9 C)
Relative Humidity: 76%
Pressure (altimeter): 29.86 in. Hg (1011 hPa)
Pressure tendency: 0.04 inches (1.5 hPa) higher than three hours ago
ob: PADL 260556Z AUTO 15006KT 10SM SCT070 BKN090 08/04 A2986 RMK AO2 RAE0457 SLP113 60000 T00780039 10117 20078 53015
cycle: 6

Station Type Date Time Source
PADL TAF 2020/05/26 06:24 UTC NOAA

TAF PADL 260521Z 2606/2706 13005KT P6SM VCSH FEW025 BKN050

Example: see airport list